createdAt,value
2023-03-03T00:02:14.363Z,-1.00
2023-03-03T00:05:19.227Z,-1.10
2023-03-03T00:08:26.325Z,-1.10
2023-03-03T00:11:32.434Z,-1.10
2023-03-03T00:14:35.603Z,-0.70
2023-03-03T00:17:38.998Z,-1.10
2023-03-03T00:20:50.413Z,-1.00
2023-03-03T00:23:55.128Z,-1.10
2023-03-03T00:27:03.438Z,-1.10
2023-03-03T00:30:19.023Z,-1.10
2023-03-03T00:33:32.604Z,-1.10
2023-03-03T00:36:39.593Z,-1.10
2023-03-03T00:39:42.739Z,-1.10
2023-03-03T00:42:50.547Z,-1.10
2023-03-03T00:45:54.622Z,-1.10
2023-03-03T00:48:57.828Z,-1.10
2023-03-03T00:52:02.701Z,-1.10
2023-03-03T00:55:07.725Z,-1.20
2023-03-03T00:58:11.109Z,-1.30
2023-03-03T01:01:19.911Z,-1.30
2023-03-03T01:04:27.491Z,-1.30
2023-03-03T01:07:32.217Z,-1.30
2023-03-03T01:10:39.176Z,-1.10
2023-03-03T01:13:46.027Z,-1.30
2023-03-03T01:16:50.117Z,-1.30
2023-03-03T01:19:54.505Z,-1.30
2023-03-03T01:22:59.136Z,-1.40
2023-03-03T01:26:02.341Z,-1.40
2023-03-03T01:29:05.531Z,-1.40
2023-03-03T01:32:08.695Z,-1.40
2023-03-03T01:35:12.799Z,-0.50
2023-03-03T01:38:17.620Z,-0.50
2023-03-03T01:41:21.096Z,-1.20
2023-03-03T01:44:24.222Z,-1.20
2023-03-03T01:47:34.491Z,-1.10
2023-03-03T01:50:41.584Z,-1.10
2023-03-03T01:53:50.862Z,-0.60
2023-03-03T01:56:56.320Z,-1.00
2023-03-03T02:00:14.855Z,-0.90
2023-03-03T02:03:19.520Z,-0.80
2023-03-03T02:06:26.178Z,-0.80
2023-03-03T02:09:38.118Z,-0.70
2023-03-03T02:12:44.405Z,-0.50
2023-03-03T02:15:48.350Z,-0.60
2023-03-03T02:18:51.905Z,-0.40
2023-03-03T02:21:55.218Z,-0.20
2023-03-03T02:25:03.383Z,-0.20
2023-03-03T02:28:08.046Z,-0.30
2023-03-03T02:31:14.269Z,0.90
2023-03-03T02:34:18.983Z,-0.10
2023-03-03T02:37:22.338Z,-0.10
2023-03-03T02:40:29.488Z,-0.10
2023-03-03T02:43:39.823Z,0.00
2023-03-03T02:46:45.281Z,-0.10
2023-03-03T02:49:48.851Z,0.00
2023-03-03T02:52:52.125Z,0.10
2023-03-03T02:55:56.152Z,0.10
2023-03-03T02:59:00.846Z,0.10
2023-03-03T03:02:07.355Z,0.20
2023-03-03T03:05:11.351Z,0.20
2023-03-03T03:08:20.945Z,0.20
2023-03-03T03:11:24.138Z,0.20
2023-03-03T03:14:28.768Z,0.70
2023-03-03T03:17:32.925Z,0.30
2023-03-03T03:20:37.867Z,0.20
2023-03-03T03:23:41.798Z,0.10
2023-03-03T03:26:45.991Z,0.10
2023-03-03T03:29:51.157Z,0.10
2023-03-03T03:32:55.025Z,0.30
2023-03-03T03:36:00.247Z,0.10
2023-03-03T03:39:06.218Z,0.10
2023-03-03T03:42:11.547Z,0.00
2023-03-03T03:45:16.547Z,0.00
2023-03-03T03:48:23.030Z,0.00
2023-03-03T03:51:26.351Z,0.00
2023-03-03T03:54:29.914Z,0.00
2023-03-03T03:57:33.504Z,0.00
2023-03-03T04:00:38.215Z,0.00
2023-03-03T04:03:41.698Z,0.00
2023-03-03T04:06:49.289Z,0.20
2023-03-03T04:09:52.810Z,0.00
2023-03-03T04:12:56.106Z,0.00
2023-03-03T04:16:02.122Z,0.10
2023-03-03T04:19:05.445Z,-0.10
2023-03-03T04:22:10.538Z,0.00
2023-03-03T04:25:16.919Z,0.00
2023-03-03T04:28:22.048Z,-0.10
2023-03-03T04:31:28.374Z,-0.10
2023-03-03T04:34:32.441Z,-0.10
2023-03-03T04:37:36.161Z,-0.10
2023-03-03T04:40:41.791Z,-0.10
2023-03-03T04:43:45.525Z,-0.20
2023-03-03T04:46:51.331Z,0.00
2023-03-03T04:49:55.537Z,-0.10
2023-03-03T04:52:58.708Z,0.70
2023-03-03T04:56:05.534Z,-0.20
2023-03-03T04:59:08.911Z,-0.20
2023-03-03T05:02:13.809Z,-0.10
2023-03-03T05:05:17.257Z,-0.20
2023-03-03T05:08:20.526Z,-0.20
2023-03-03T05:11:23.774Z,-0.20
2023-03-03T05:14:28.416Z,-0.10
2023-03-03T05:17:33.060Z,-0.10
2023-03-03T05:20:36.259Z,0.00
2023-03-03T05:23:39.449Z,0.00
2023-03-03T05:26:42.897Z,0.00
2023-03-03T05:29:46.675Z,0.20
2023-03-03T05:32:51.535Z,0.00
2023-03-03T05:35:55.812Z,0.00
2023-03-03T05:38:59.046Z,0.00
2023-03-03T05:42:02.403Z,0.00
2023-03-03T05:45:06.336Z,0.10
2023-03-03T05:48:11.194Z,0.00
2023-03-03T05:51:14.582Z,0.10
2023-03-03T05:54:17.833Z,0.00
2023-03-03T05:57:22.553Z,0.10
2023-03-03T06:00:25.853Z,0.00
2023-03-03T06:03:30.463Z,0.00
2023-03-03T06:06:33.605Z,0.10
2023-03-03T06:09:36.907Z,0.20
2023-03-03T06:12:42.036Z,0.20
2023-03-03T06:15:45.567Z,0.30
2023-03-03T06:18:50.347Z,0.30
2023-03-03T06:21:53.544Z,0.30
2023-03-03T06:24:56.702Z,0.50
2023-03-03T06:27:59.886Z,0.40
2023-03-03T06:31:03.112Z,0.30
2023-03-03T06:34:08.032Z,0.50
2023-03-03T06:37:11.762Z,0.40
2023-03-03T06:40:15.475Z,0.50
2023-03-03T06:43:18.692Z,0.40
2023-03-03T06:46:21.880Z,0.50
2023-03-03T06:49:26.504Z,1.20
2023-03-03T06:52:29.744Z,0.60
2023-03-03T06:55:32.940Z,0.70
2023-03-03T06:58:36.412Z,0.80
2023-03-03T07:01:40.150Z,0.80
2023-03-03T07:04:45.522Z,0.90
2023-03-03T07:07:48.712Z,0.80
2023-03-03T07:10:54.014Z,0.90
2023-03-03T07:13:58.090Z,1.00
2023-03-03T07:17:06.099Z,1.00
2023-03-03T07:20:19.783Z,1.00
2023-03-03T07:23:26.058Z,1.10
2023-03-03T07:26:32.905Z,1.20
2023-03-03T07:29:41.183Z,1.10
2023-03-03T07:32:46.266Z,1.10
2023-03-03T07:35:50.886Z,1.10
2023-03-03T07:38:55.654Z,1.10
2023-03-03T07:42:19.278Z,1.20
2023-03-03T07:45:29.290Z,1.20
2023-03-03T07:48:37.149Z,1.10
2023-03-03T07:51:42.679Z,1.30
2023-03-03T07:54:47.647Z,1.30
2023-03-03T07:57:59.130Z,1.40
2023-03-03T08:01:28.739Z,1.30
2023-03-03T08:04:41.984Z,1.30
2023-03-03T08:07:46.678Z,1.30
2023-03-03T08:10:51.415Z,1.30
2023-03-03T08:13:54.618Z,1.30
2023-03-03T08:17:00.491Z,1.30
2023-03-03T08:20:25.520Z,1.50
2023-03-03T08:23:30.296Z,1.60
2023-03-03T08:26:33.511Z,1.60
2023-03-03T08:29:36.707Z,2.00
2023-03-03T08:32:39.966Z,1.80
2023-03-03T08:35:43.736Z,1.90
2023-03-03T08:38:48.409Z,1.80
2023-03-03T08:41:51.598Z,2.00
2023-03-03T08:44:54.738Z,1.90
2023-03-03T08:47:59.813Z,1.70
2023-03-03T08:51:02.991Z,1.60
2023-03-03T08:54:07.604Z,1.90
2023-03-03T08:57:10.857Z,2.00
2023-03-03T09:00:17.035Z,2.20
2023-03-03T09:03:20.206Z,2.40
2023-03-03T09:06:23.430Z,2.60
2023-03-03T09:09:28.466Z,2.20
2023-03-03T09:12:35.267Z,2.50
2023-03-03T09:15:39.840Z,2.40
2023-03-03T09:18:43.674Z,2.00
2023-03-03T09:21:46.954Z,1.90
2023-03-03T09:24:55.477Z,1.60
2023-03-03T09:27:59.044Z,1.70
2023-03-03T09:31:07.401Z,2.00
2023-03-03T09:34:22.462Z,2.30
2023-03-03T09:37:32.397Z,2.20
2023-03-03T09:40:54.763Z,2.60
2023-03-03T09:44:17.259Z,2.20
2023-03-03T09:47:45.081Z,2.20
2023-03-03T09:51:01.061Z,2.10
2023-03-03T09:54:17.324Z,1.90
2023-03-03T09:57:27.053Z,2.20
2023-03-03T10:00:43.194Z,2.60
2023-03-03T10:04:00.594Z,3.70
2023-03-03T10:07:20.488Z,3.20
2023-03-03T10:11:01.661Z,3.60
2023-03-03T10:14:32.293Z,3.20
2023-03-03T10:17:48.604Z,2.90
2023-03-03T10:21:05.426Z,3.20
2023-03-03T10:24:25.492Z,3.40
2023-03-03T10:27:45.176Z,3.50
2023-03-03T10:31:10.637Z,3.50
2023-03-03T10:34:27.146Z,3.70
2023-03-03T10:37:36.993Z,3.80
2023-03-03T10:40:47.954Z,3.70
2023-03-03T10:44:15.227Z,3.60
2023-03-03T10:47:41.638Z,3.60
2023-03-03T10:50:54.914Z,3.70
2023-03-03T10:54:16.591Z,3.20
2023-03-03T10:57:29.923Z,3.50
2023-03-03T11:00:38.405Z,3.50
2023-03-03T11:04:08.819Z,3.40
2023-03-03T11:07:20.279Z,3.30
2023-03-03T11:10:38.591Z,3.20
2023-03-03T11:13:49.381Z,3.20
2023-03-03T11:17:01.635Z,3.60
2023-03-03T11:20:13.223Z,3.60
2023-03-03T11:23:33.325Z,3.50
2023-03-03T11:27:07.513Z,3.70
2023-03-03T11:30:30.044Z,3.70
2023-03-03T11:33:38.768Z,3.70
2023-03-03T11:36:50.053Z,3.80
2023-03-03T11:39:56.660Z,3.50
2023-03-03T11:43:07.236Z,3.90
2023-03-03T11:46:15.824Z,4.10
2023-03-03T11:49:24.802Z,4.00
2023-03-03T11:52:37.998Z,3.80
2023-03-03T11:55:43.745Z,4.10
2023-03-03T11:58:52.525Z,4.40
2023-03-03T12:01:58.355Z,5.10
2023-03-03T12:05:09.976Z,5.80
2023-03-03T12:08:25.148Z,6.40
2023-03-03T12:11:33.329Z,5.80
2023-03-03T12:14:57.166Z,6.20
2023-03-03T12:18:24.606Z,6.30
2023-03-03T12:21:43.385Z,7.00
2023-03-03T12:25:08.022Z,7.50
2023-03-03T12:28:17.625Z,7.40
2023-03-03T12:31:41.154Z,6.10
2023-03-03T12:34:51.865Z,5.30
2023-03-03T12:38:01.651Z,5.30
2023-03-03T12:41:12.765Z,6.30
2023-03-03T12:44:21.733Z,6.40
2023-03-03T12:47:29.542Z,5.70
2023-03-03T12:50:44.620Z,5.00
2023-03-03T12:54:01.667Z,5.10
2023-03-03T12:57:22.883Z,5.40
2023-03-03T13:00:32.335Z,5.10
2023-03-03T13:03:54.993Z,5.40
2023-03-03T13:07:05.045Z,5.20
2023-03-03T13:10:18.297Z,4.80
2023-03-03T13:13:30.303Z,4.90
2023-03-03T13:16:41.752Z,5.20
2023-03-03T13:19:50.777Z,5.80
2023-03-03T13:23:00.761Z,6.20
2023-03-03T13:26:11.299Z,5.90
2023-03-03T13:29:22.183Z,5.40
2023-03-03T13:32:32.451Z,5.80
2023-03-03T13:35:43.391Z,6.00
2023-03-03T13:38:50.884Z,5.70
2023-03-03T13:42:01.016Z,5.60
2023-03-03T13:45:17.787Z,5.50
2023-03-03T13:48:36.693Z,5.50
2023-03-03T13:51:48.791Z,5.50
2023-03-03T13:55:02.717Z,5.20
2023-03-03T13:58:16.274Z,5.10
2023-03-03T14:01:27.534Z,5.00
2023-03-03T14:04:48.140Z,5.00
2023-03-03T14:07:58.855Z,5.00
2023-03-03T14:11:12.194Z,5.00
2023-03-03T14:14:29.675Z,4.80
2023-03-03T14:17:43.408Z,4.60
2023-03-03T14:20:49.253Z,4.50
2023-03-03T14:23:59.156Z,4.50
2023-03-03T14:27:02.731Z,4.50
2023-03-03T14:30:29.634Z,4.50
2023-03-03T14:33:35.472Z,4.50
2023-03-03T14:36:41.753Z,4.40
2023-03-03T14:39:50.948Z,4.30
2023-03-03T14:42:57.461Z,4.40
2023-03-03T14:46:27.918Z,4.30
2023-03-03T14:49:34.865Z,4.30
2023-03-03T14:52:40.155Z,4.10
2023-03-03T14:55:45.426Z,4.00
2023-03-03T14:58:49.657Z,4.00
2023-03-03T15:02:01.772Z,4.00
2023-03-03T15:05:26.131Z,4.00
2023-03-03T15:08:34.101Z,4.00
2023-03-03T15:11:38.172Z,4.00
2023-03-03T15:14:46.999Z,4.10
2023-03-03T15:18:00.040Z,4.10
2023-03-03T15:21:09.295Z,3.90
2023-03-03T15:24:23.112Z,3.90
2023-03-03T15:27:31.607Z,3.80
2023-03-03T15:30:39.367Z,3.80
2023-03-03T15:33:48.523Z,3.70
2023-03-03T15:36:59.111Z,3.50
2023-03-03T15:40:15.371Z,3.40
2023-03-03T15:43:26.608Z,3.30
2023-03-03T15:46:40.858Z,3.20
2023-03-03T15:49:57.675Z,3.10
2023-03-03T15:53:14.131Z,3.10
2023-03-03T15:56:29.401Z,3.00
2023-03-03T15:59:51.014Z,2.80
2023-03-03T16:02:58.946Z,2.70
2023-03-03T16:06:07.549Z,2.60
2023-03-03T16:09:25.556Z,2.50
2023-03-03T16:12:37.830Z,2.40
2023-03-03T16:15:59.168Z,2.30
2023-03-03T16:19:20.132Z,2.20
2023-03-03T16:22:42.105Z,1.00
2023-03-03T16:26:14.278Z,2.10
2023-03-03T16:29:33.404Z,2.10
2023-03-03T16:32:43.753Z,1.90
2023-03-03T16:35:52.099Z,1.80
2023-03-03T16:39:04.661Z,1.70
2023-03-03T16:42:22.335Z,1.70
2023-03-03T16:45:29.173Z,1.60
2023-03-03T16:48:44.070Z,1.60
2023-03-03T16:51:52.245Z,1.60
2023-03-03T16:55:00.565Z,1.60
2023-03-03T16:58:17.390Z,1.60
2023-03-03T17:01:29.060Z,1.60
2023-03-03T17:04:40.719Z,1.50
2023-03-03T17:07:49.662Z,1.50
2023-03-03T17:10:57.919Z,1.50
2023-03-03T17:14:18.975Z,1.50
2023-03-03T17:17:33.326Z,1.50
2023-03-03T17:20:42.991Z,1.40
2023-03-03T17:24:09.705Z,1.50
2023-03-03T17:27:18.688Z,1.40
2023-03-03T17:30:28.021Z,1.40
2023-03-03T17:34:05.508Z,1.40
2023-03-03T17:37:21.945Z,1.30
2023-03-03T17:40:40.735Z,1.30
2023-03-03T17:43:54.397Z,1.20
2023-03-03T17:47:03.651Z,1.10
2023-03-03T17:50:33.549Z,1.20
2023-03-03T17:53:58.456Z,1.10
2023-03-03T17:57:15.928Z,1.10
2023-03-03T18:00:44.222Z,1.10
2023-03-03T18:04:08.511Z,1.10
2023-03-03T18:07:28.112Z,1.00
2023-03-03T18:11:09.914Z,1.00
2023-03-03T18:14:29.639Z,0.90
2023-03-03T18:17:40.248Z,0.90
2023-03-03T18:21:03.976Z,1.00
2023-03-03T18:24:31.286Z,1.00
2023-03-03T18:27:37.183Z,0.90
2023-03-03T18:30:58.098Z,0.90
2023-03-03T18:34:08.086Z,0.90
2023-03-03T18:37:45.118Z,0.80
2023-03-03T18:40:54.701Z,0.80
2023-03-03T18:44:00.589Z,0.80
2023-03-03T18:47:05.316Z,0.80
2023-03-03T18:50:31.042Z,0.80
2023-03-03T18:53:37.228Z,0.80
2023-03-03T18:56:46.543Z,0.80
2023-03-03T18:59:59.596Z,0.80
2023-03-03T19:03:07.396Z,0.80
2023-03-03T19:06:11.637Z,0.80
2023-03-03T19:09:22.467Z,0.70
2023-03-03T19:12:56.880Z,0.80
2023-03-03T19:16:04.163Z,0.80
2023-03-03T19:19:22.080Z,0.80
2023-03-03T19:22:28.659Z,0.70
2023-03-03T19:25:34.061Z,0.80
2023-03-03T19:28:43.124Z,0.80
2023-03-03T19:31:54.433Z,0.80
2023-03-03T19:35:14.484Z,0.80
2023-03-03T19:38:28.758Z,0.70
2023-03-03T19:41:57.157Z,0.70
2023-03-03T19:45:17.818Z,0.70
2023-03-03T19:48:30.576Z,0.70
2023-03-03T19:51:39.474Z,0.70
2023-03-03T19:55:00.489Z,0.80
2023-03-03T19:58:19.202Z,0.70
2023-03-03T20:01:30.192Z,0.70
2023-03-03T20:04:46.199Z,0.70
2023-03-03T20:07:57.708Z,0.70
2023-03-03T20:11:08.120Z,1.10
2023-03-03T20:14:32.636Z,0.70
2023-03-03T20:17:53.061Z,0.70
2023-03-03T20:21:05.422Z,0.70
2023-03-03T20:24:30.992Z,0.70
2023-03-03T20:27:41.948Z,0.70
2023-03-03T20:30:57.711Z,0.70
2023-03-03T20:34:10.323Z,0.60
2023-03-03T20:37:19.091Z,0.60
2023-03-03T20:40:30.877Z,0.60
2023-03-03T20:43:44.463Z,0.60
2023-03-03T20:47:01.843Z,0.60
2023-03-03T20:50:20.170Z,0.60
2023-03-03T20:53:31.808Z,0.60
2023-03-03T20:56:43.678Z,0.50
2023-03-03T20:59:55.334Z,0.60
2023-03-03T21:03:12.054Z,0.50
2023-03-03T21:06:17.948Z,0.50
2023-03-03T21:09:27.557Z,0.50
2023-03-03T21:12:32.227Z,0.60
2023-03-03T21:15:36.506Z,0.60
2023-03-03T21:18:41.321Z,0.60
2023-03-03T21:21:47.000Z,0.60
2023-03-03T21:24:54.459Z,0.70
2023-03-03T21:28:20.363Z,0.60
2023-03-03T21:31:23.912Z,0.70
2023-03-03T21:34:32.646Z,0.60
2023-03-03T21:37:50.756Z,0.10
2023-03-03T21:41:01.587Z,0.60
2023-03-03T21:44:38.899Z,0.60
2023-03-03T21:47:42.467Z,0.60
2023-03-03T21:50:52.166Z,0.50
2023-03-03T21:53:56.337Z,0.50
2023-03-03T21:57:03.084Z,0.50
2023-03-03T22:00:11.140Z,0.40
2023-03-03T22:03:20.038Z,0.40
2023-03-03T22:06:24.951Z,0.40
2023-03-03T22:09:29.035Z,0.30
2023-03-03T22:12:32.394Z,0.20
2023-03-03T22:15:35.657Z,0.20
2023-03-03T22:18:38.943Z,0.10
2023-03-03T22:21:44.026Z,0.00
2023-03-03T22:24:47.410Z,0.00
2023-03-03T22:27:50.716Z,0.10
2023-03-03T22:30:54.154Z,0.10
2023-03-03T22:33:57.511Z,0.00
2023-03-03T22:37:02.164Z,0.00
2023-03-03T22:40:09.306Z,0.10
2023-03-03T22:43:14.601Z,0.10
2023-03-03T22:46:18.514Z,0.10
2023-03-03T22:49:21.774Z,0.10
2023-03-03T22:52:26.401Z,0.10
2023-03-03T22:55:29.812Z,0.80
2023-03-03T22:58:33.016Z,0.10
2023-03-03T23:01:36.323Z,0.10
2023-03-03T23:04:39.677Z,0.10
2023-03-03T23:07:44.540Z,0.10
2023-03-03T23:10:48.593Z,0.10
2023-03-03T23:13:51.799Z,0.10
2023-03-03T23:16:55.096Z,0.50
2023-03-03T23:19:58.291Z,0.10
2023-03-03T23:23:05.455Z,0.10
2023-03-03T23:26:09.758Z,0.10
2023-03-03T23:29:13.032Z,0.10
2023-03-03T23:32:16.275Z,0.10
2023-03-03T23:35:20.072Z,0.00
2023-03-03T23:38:24.751Z,0.00
2023-03-03T23:41:27.968Z,0.00
2023-03-03T23:44:31.192Z,0.00
2023-03-03T23:47:34.402Z,0.00
2023-03-03T23:50:38.166Z,0.00
2023-03-03T23:53:42.779Z,0.00
2023-03-03T23:56:46.084Z,0.00
2023-03-03T23:59:49.820Z,0.00
